sensor_id;sensor_type;location;lat;lon;timestamp;P1;durP1;ratioP1;P2;durP2;ratioP2
37917;SDS011;23749;51.410;21.130;2022-11-21T00:03:00;66.80;;;33.63;;
37917;SDS011;23749;51.410;21.130;2022-11-21T00:06:10;59.70;;;30.73;;
37917;SDS011;23749;51.410;21.130;2022-11-21T00:09:22;66.23;;;31.97;;
37917;SDS011;23749;51.410;21.130;2022-11-21T00:12:33;65.67;;;32.67;;
37917;SDS011;23749;51.410;21.130;2022-11-21T00:15:44;60.73;;;31.53;;
37917;SDS011;23749;51.410;21.130;2022-11-21T00:18:55;66.83;;;31.80;;
37917;SDS011;23749;51.410;21.130;2022-11-21T00:22:06;66.90;;;32.70;;
37917;SDS011;23749;51.410;21.130;2022-11-21T00:25:17;64.73;;;31.73;;
37917;SDS011;23749;51.410;21.130;2022-11-21T00:28:28;66.93;;;32.77;;
37917;SDS011;23749;51.410;21.130;2022-11-21T00:31:38;66.87;;;34.27;;
37917;SDS011;23749;51.410;21.130;2022-11-21T00:34:48;64.23;;;33.07;;
37917;SDS011;23749;51.410;21.130;2022-11-21T00:37:59;65.27;;;33.43;;
37917;SDS011;23749;51.410;21.130;2022-11-21T00:41:09;66.20;;;33.20;;
37917;SDS011;23749;51.410;21.130;2022-11-21T00:44:20;54.00;;;29.77;;
37917;SDS011;23749;51.410;21.130;2022-11-21T00:47:32;65.10;;;31.90;;
37917;SDS011;23749;51.410;21.130;2022-11-21T00:50:43;47.50;;;25.77;;
37917;SDS011;23749;51.410;21.130;2022-11-21T00:53:53;57.43;;;29.27;;
37917;SDS011;23749;51.410;21.130;2022-11-21T00:57:04;63.33;;;29.50;;
37917;SDS011;23749;51.410;21.130;2022-11-21T01:00:14;51.40;;;27.40;;
37917;SDS011;23749;51.410;21.130;2022-11-21T01:03:24;58.27;;;29.93;;
37917;SDS011;23749;51.410;21.130;2022-11-21T01:06:36;61.97;;;29.63;;
37917;SDS011;23749;51.410;21.130;2022-11-21T01:09:46;64.30;;;31.27;;
37917;SDS011;23749;51.410;21.130;2022-11-21T01:12:57;61.87;;;29.50;;
37917;SDS011;23749;51.410;21.130;2022-11-21T01:16:10;66.13;;;31.33;;
37917;SDS011;23749;51.410;21.130;2022-11-21T01:19:22;74.10;;;31.63;;
37917;SDS011;23749;51.410;21.130;2022-11-21T01:22:33;64.93;;;31.23;;
37917;SDS011;23749;51.410;21.130;2022-11-21T01:25:44;64.40;;;30.60;;
37917;SDS011;23749;51.410;21.130;2022-11-21T01:28:54;59.63;;;29.27;;
37917;SDS011;23749;51.410;21.130;2022-11-21T01:32:04;58.07;;;30.40;;
37917;SDS011;23749;51.410;21.130;2022-11-21T01:35:15;63.10;;;30.87;;
37917;SDS011;23749;51.410;21.130;2022-11-21T01:38:25;61.70;;;30.47;;
37917;SDS011;23749;51.410;21.130;2022-11-21T01:41:38;70.03;;;32.90;;
37917;SDS011;23749;51.410;21.130;2022-11-21T01:44:50;89.63;;;38.70;;
37917;SDS011;23749;51.410;21.130;2022-11-21T01:48:02;82.87;;;38.33;;
37917;SDS011;23749;51.410;21.130;2022-11-21T01:54:39;69.47;;;34.50;;
37917;SDS011;23749;51.410;21.130;2022-11-21T01:57:50;70.33;;;33.07;;
37917;SDS011;23749;51.410;21.130;2022-11-21T02:01:01;67.57;;;31.87;;
37917;SDS011;23749;51.410;21.130;2022-11-21T02:04:12;67.10;;;31.00;;
37917;SDS011;23749;51.410;21.130;2022-11-21T02:07:23;75.63;;;32.23;;
37917;SDS011;23749;51.410;21.130;2022-11-21T02:10:34;71.93;;;34.10;;
37917;SDS011;23749;51.410;21.130;2022-11-21T02:13:46;82.40;;;35.13;;
37917;SDS011;23749;51.410;21.130;2022-11-21T02:16:59;74.50;;;33.20;;
37917;SDS011;23749;51.410;21.130;2022-11-21T02:20:14;80.30;;;34.97;;
37917;SDS011;23749;51.410;21.130;2022-11-21T02:26:40;66.00;;;32.27;;
37917;SDS011;23749;51.410;21.130;2022-11-21T02:29:52;62.07;;;29.10;;
37917;SDS011;23749;51.410;21.130;2022-11-21T02:33:03;72.53;;;32.17;;
37917;SDS011;23749;51.410;21.130;2022-11-21T02:39:59;60.17;;;28.53;;
37917;SDS011;23749;51.410;21.130;2022-11-21T02:43:13;63.73;;;30.93;;
37917;SDS011;23749;51.410;21.130;2022-11-21T02:46:26;63.67;;;29.63;;
37917;SDS011;23749;51.410;21.130;2022-11-21T02:49:39;73.53;;;30.90;;
37917;SDS011;23749;51.410;21.130;2022-11-21T02:52:52;76.67;;;35.83;;
37917;SDS011;23749;51.410;21.130;2022-11-21T02:56:04;74.27;;;33.37;;
37917;SDS011;23749;51.410;21.130;2022-11-21T02:59:15;66.93;;;30.87;;
37917;SDS011;23749;51.410;21.130;2022-11-21T03:02:25;64.53;;;31.37;;
37917;SDS011;23749;51.410;21.130;2022-11-21T03:05:37;63.90;;;31.10;;
37917;SDS011;23749;51.410;21.130;2022-11-21T03:08:49;69.03;;;31.63;;
37917;SDS011;23749;51.410;21.130;2022-11-21T03:12:08;68.37;;;31.70;;
37917;SDS011;23749;51.410;21.130;2022-11-21T03:15:19;70.33;;;33.80;;
37917;SDS011;23749;51.410;21.130;2022-11-21T03:18:30;69.23;;;33.60;;
37917;SDS011;23749;51.410;21.130;2022-11-21T03:21:41;72.13;;;34.17;;
37917;SDS011;23749;51.410;21.130;2022-11-21T03:24:53;68.37;;;32.27;;
37917;SDS011;23749;51.410;21.130;2022-11-21T03:28:03;74.60;;;33.63;;
37917;SDS011;23749;51.410;21.130;2022-11-21T03:31:14;93.83;;;38.50;;
37917;SDS011;23749;51.410;21.130;2022-11-21T03:34:24;81.03;;;36.43;;
37917;SDS011;23749;51.410;21.130;2022-11-21T03:37:36;84.43;;;36.53;;
37917;SDS011;23749;51.410;21.130;2022-11-21T03:40:48;74.90;;;34.67;;
37917;SDS011;23749;51.410;21.130;2022-11-21T03:47:10;73.73;;;29.60;;
37917;SDS011;23749;51.410;21.130;2022-11-21T03:50:21;76.17;;;33.43;;
37917;SDS011;23749;51.410;21.130;2022-11-21T03:53:33;66.97;;;33.23;;
37917;SDS011;23749;51.410;21.130;2022-11-21T03:56:45;70.20;;;33.13;;
37917;SDS011;23749;51.410;21.130;2022-11-21T03:59:55;90.53;;;41.53;;
37917;SDS011;23749;51.410;21.130;2022-11-21T04:03:06;81.57;;;37.07;;
37917;SDS011;23749;51.410;21.130;2022-11-21T04:06:18;89.97;;;39.33;;
37917;SDS011;23749;51.410;21.130;2022-11-21T04:09:30;87.37;;;39.00;;
37917;SDS011;23749;51.410;21.130;2022-11-21T04:12:40;116.63;;;45.10;;
37917;SDS011;23749;51.410;21.130;2022-11-21T04:15:50;95.90;;;38.77;;
37917;SDS011;23749;51.410;21.130;2022-11-21T04:19:01;89.30;;;37.07;;
37917;SDS011;23749;51.410;21.130;2022-11-21T04:22:12;92.33;;;37.53;;
37917;SDS011;23749;51.410;21.130;2022-11-21T04:25:22;97.50;;;39.20;;
37917;SDS011;23749;51.410;21.130;2022-11-21T04:28:32;86.63;;;36.70;;
37917;SDS011;23749;51.410;21.130;2022-11-21T04:31:43;96.33;;;39.80;;
37917;SDS011;23749;51.410;21.130;2022-11-21T04:34:53;104.63;;;42.50;;
37917;SDS011;23749;51.410;21.130;2022-11-21T04:38:04;96.30;;;41.43;;
37917;SDS011;23749;51.410;21.130;2022-11-21T04:41:16;102.97;;;44.77;;
37917;SDS011;23749;51.410;21.130;2022-11-21T04:44:28;102.97;;;46.10;;
37917;SDS011;23749;51.410;21.130;2022-11-21T04:47:40;94.93;;;41.43;;
37917;SDS011;23749;51.410;21.130;2022-11-21T04:50:51;91.70;;;41.73;;
37917;SDS011;23749;51.410;21.130;2022-11-21T04:54:02;88.00;;;38.33;;
37917;SDS011;23749;51.410;21.130;2022-11-21T04:57:13;87.03;;;38.97;;
37917;SDS011;23749;51.410;21.130;2022-11-21T05:00:24;84.40;;;37.97;;
37917;SDS011;23749;51.410;21.130;2022-11-21T05:03:36;82.10;;;38.20;;
37917;SDS011;23749;51.410;21.130;2022-11-21T05:06:47;82.47;;;35.87;;
37917;SDS011;23749;51.410;21.130;2022-11-21T05:09:57;76.70;;;36.63;;
37917;SDS011;23749;51.410;21.130;2022-11-21T05:13:09;74.77;;;38.17;;
37917;SDS011;23749;51.410;21.130;2022-11-21T05:16:34;77.43;;;36.93;;
37917;SDS011;23749;51.410;21.130;2022-11-21T05:19:47;79.43;;;35.53;;
37917;SDS011;23749;51.410;21.130;2022-11-21T05:22:59;89.90;;;37.73;;
37917;SDS011;23749;51.410;21.130;2022-11-21T05:26:10;131.43;;;49.23;;
37917;SDS011;23749;51.410;21.130;2022-11-21T05:29:22;123.43;;;47.17;;
37917;SDS011;23749;51.410;21.130;2022-11-21T05:32:32;194.00;;;63.77;;
37917;SDS011;23749;51.410;21.130;2022-11-21T05:35:42;136.73;;;53.23;;
37917;SDS011;23749;51.410;21.130;2022-11-21T05:38:53;122.13;;;51.00;;
37917;SDS011;23749;51.410;21.130;2022-11-21T05:42:04;121.43;;;48.70;;
37917;SDS011;23749;51.410;21.130;2022-11-21T05:45:16;116.07;;;45.83;;
37917;SDS011;23749;51.410;21.130;2022-11-21T05:48:26;111.07;;;44.50;;
37917;SDS011;23749;51.410;21.130;2022-11-21T05:51:37;108.47;;;43.93;;
37917;SDS011;23749;51.410;21.130;2022-11-21T05:54:48;104.03;;;43.23;;
37917;SDS011;23749;51.410;21.130;2022-11-21T05:58:00;108.27;;;44.60;;
37917;SDS011;23749;51.410;21.130;2022-11-21T06:01:12;142.20;;;53.67;;
37917;SDS011;23749;51.410;21.130;2022-11-21T06:04:23;116.87;;;50.63;;
37917;SDS011;23749;51.410;21.130;2022-11-21T06:07:35;106.17;;;45.60;;
37917;SDS011;23749;51.410;21.130;2022-11-21T06:10:46;104.83;;;44.10;;
37917;SDS011;23749;51.410;21.130;2022-11-21T06:13:58;92.03;;;41.10;;
37917;SDS011;23749;51.410;21.130;2022-11-21T06:17:10;97.90;;;43.47;;
37917;SDS011;23749;51.410;21.130;2022-11-21T06:20:23;96.83;;;44.70;;
37917;SDS011;23749;51.410;21.130;2022-11-21T06:23:33;99.50;;;45.37;;
37917;SDS011;23749;51.410;21.130;2022-11-21T06:26:45;99.13;;;44.43;;
37917;SDS011;23749;51.410;21.130;2022-11-21T06:29:57;105.87;;;47.37;;
37917;SDS011;23749;51.410;21.130;2022-11-21T06:33:07;119.73;;;51.37;;
37917;SDS011;23749;51.410;21.130;2022-11-21T06:36:19;101.47;;;44.30;;
37917;SDS011;23749;51.410;21.130;2022-11-21T06:39:29;96.83;;;45.03;;
37917;SDS011;23749;51.410;21.130;2022-11-21T06:42:42;104.23;;;46.00;;
37917;SDS011;23749;51.410;21.130;2022-11-21T06:45:56;115.73;;;49.67;;
37917;SDS011;23749;51.410;21.130;2022-11-21T06:49:07;242.80;;;91.30;;
37917;SDS011;23749;51.410;21.130;2022-11-21T06:52:18;250.23;;;99.77;;
37917;SDS011;23749;51.410;21.130;2022-11-21T06:55:29;187.53;;;76.80;;
37917;SDS011;23749;51.410;21.130;2022-11-21T06:58:39;192.40;;;80.63;;
37917;SDS011;23749;51.410;21.130;2022-11-21T07:01:50;178.07;;;76.43;;
37917;SDS011;23749;51.410;21.130;2022-11-21T07:05:00;167.50;;;72.23;;
37917;SDS011;23749;51.410;21.130;2022-11-21T07:08:10;139.80;;;61.57;;
37917;SDS011;23749;51.410;21.130;2022-11-21T07:11:21;148.20;;;67.17;;
37917;SDS011;23749;51.410;21.130;2022-11-21T07:14:31;143.23;;;66.30;;
37917;SDS011;23749;51.410;21.130;2022-11-21T07:17:41;132.03;;;60.33;;
37917;SDS011;23749;51.410;21.130;2022-11-21T07:20:53;122.20;;;58.53;;
37917;SDS011;23749;51.410;21.130;2022-11-21T07:24:08;146.07;;;67.97;;
37917;SDS011;23749;51.410;21.130;2022-11-21T07:27:18;188.40;;;83.17;;
37917;SDS011;23749;51.410;21.130;2022-11-21T07:30:30;157.70;;;75.03;;
37917;SDS011;23749;51.410;21.130;2022-11-21T07:33:40;155.33;;;70.07;;
37917;SDS011;23749;51.410;21.130;2022-11-21T07:36:52;137.67;;;69.70;;
37917;SDS011;23749;51.410;21.130;2022-11-21T07:40:04;146.67;;;68.30;;
37917;SDS011;23749;51.410;21.130;2022-11-21T07:43:14;128.00;;;62.47;;
37917;SDS011;23749;51.410;21.130;2022-11-21T07:46:25;122.23;;;59.40;;
37917;SDS011;23749;51.410;21.130;2022-11-21T07:49:35;116.43;;;59.23;;
37917;SDS011;23749;51.410;21.130;2022-11-21T07:52:46;81.70;;;43.87;;
37917;SDS011;23749;51.410;21.130;2022-11-21T07:55:57;79.50;;;41.87;;
37917;SDS011;23749;51.410;21.130;2022-11-21T07:59:09;58.57;;;33.43;;
37917;SDS011;23749;51.410;21.130;2022-11-21T08:02:26;69.33;;;36.57;;
37917;SDS011;23749;51.410;21.130;2022-11-21T08:05:36;57.30;;;31.97;;
37917;SDS011;23749;51.410;21.130;2022-11-21T08:08:50;71.00;;;38.40;;
37917;SDS011;23749;51.410;21.130;2022-11-21T08:12:02;69.70;;;39.40;;
37917;SDS011;23749;51.410;21.130;2022-11-21T08:15:13;70.47;;;39.13;;
37917;SDS011;23749;51.410;21.130;2022-11-21T08:18:23;56.70;;;35.27;;
37917;SDS011;23749;51.410;21.130;2022-11-21T08:21:33;60.63;;;36.77;;
37917;SDS011;23749;51.410;21.130;2022-11-21T08:24:45;59.83;;;33.70;;
37917;SDS011;23749;51.410;21.130;2022-11-21T08:27:56;62.47;;;36.37;;
37917;SDS011;23749;51.410;21.130;2022-11-21T08:31:06;55.40;;;33.53;;
37917;SDS011;23749;51.410;21.130;2022-11-21T08:34:16;54.70;;;33.07;;
37917;SDS011;23749;51.410;21.130;2022-11-21T08:37:27;51.00;;;30.93;;
37917;SDS011;23749;51.410;21.130;2022-11-21T08:40:38;55.43;;;33.47;;
37917;SDS011;23749;51.410;21.130;2022-11-21T08:43:49;54.80;;;33.80;;
37917;SDS011;23749;51.410;21.130;2022-11-21T08:46:59;56.20;;;30.97;;
37917;SDS011;23749;51.410;21.130;2022-11-21T08:50:10;53.37;;;32.90;;
37917;SDS011;23749;51.410;21.130;2022-11-21T08:53:20;54.80;;;31.67;;
37917;SDS011;23749;51.410;21.130;2022-11-21T08:56:30;50.40;;;31.50;;
37917;SDS011;23749;51.410;21.130;2022-11-21T08:59:41;53.57;;;33.10;;
37917;SDS011;23749;51.410;21.130;2022-11-21T09:02:51;55.63;;;32.30;;
37917;SDS011;23749;51.410;21.130;2022-11-21T09:06:02;51.33;;;31.50;;
37917;SDS011;23749;51.410;21.130;2022-11-21T09:09:12;45.00;;;27.53;;
37917;SDS011;23749;51.410;21.130;2022-11-21T09:12:22;52.20;;;31.80;;
37917;SDS011;23749;51.410;21.130;2022-11-21T09:15:33;49.97;;;30.00;;
37917;SDS011;23749;51.410;21.130;2022-11-21T09:19:01;48.17;;;28.70;;
37917;SDS011;23749;51.410;21.130;2022-11-21T09:22:13;50.53;;;31.27;;
37917;SDS011;23749;51.410;21.130;2022-11-21T09:25:23;55.57;;;31.73;;
37917;SDS011;23749;51.410;21.130;2022-11-21T09:28:33;55.87;;;31.43;;
37917;SDS011;23749;51.410;21.130;2022-11-21T09:31:44;51.57;;;29.97;;
37917;SDS011;23749;51.410;21.130;2022-11-21T09:34:55;45.13;;;27.33;;
37917;SDS011;23749;51.410;21.130;2022-11-21T09:38:05;49.43;;;27.73;;
37917;SDS011;23749;51.410;21.130;2022-11-21T09:41:20;49.80;;;28.60;;
37917;SDS011;23749;51.410;21.130;2022-11-21T09:45:08;57.27;;;32.73;;
37917;SDS011;23749;51.410;21.130;2022-11-21T09:48:23;49.40;;;28.83;;
37917;SDS011;23749;51.410;21.130;2022-11-21T09:51:36;50.20;;;28.50;;
37917;SDS011;23749;51.410;21.130;2022-11-21T09:54:52;52.80;;;30.90;;
37917;SDS011;23749;51.410;21.130;2022-11-21T09:58:04;47.70;;;27.77;;
37917;SDS011;23749;51.410;21.130;2022-11-21T10:01:15;60.40;;;31.10;;
37917;SDS011;23749;51.410;21.130;2022-11-21T10:04:26;43.70;;;25.33;;
37917;SDS011;23749;51.410;21.130;2022-11-21T10:07:36;52.70;;;32.03;;
37917;SDS011;23749;51.410;21.130;2022-11-21T10:10:49;57.73;;;32.33;;
37917;SDS011;23749;51.410;21.130;2022-11-21T10:17:15;63.50;;;34.97;;
37917;SDS011;23749;51.410;21.130;2022-11-21T10:23:56;55.77;;;30.27;;
37917;SDS011;23749;51.410;21.130;2022-11-21T10:30:29;51.53;;;31.57;;
37917;SDS011;23749;51.410;21.130;2022-11-21T10:33:39;57.40;;;33.23;;
37917;SDS011;23749;51.410;21.130;2022-11-21T10:36:51;53.23;;;32.77;;
37917;SDS011;23749;51.410;21.130;2022-11-21T10:40:07;56.17;;;32.17;;
37917;SDS011;23749;51.410;21.130;2022-11-21T10:46:58;57.43;;;33.57;;
37917;SDS011;23749;51.410;21.130;2022-11-21T10:53:22;52.67;;;32.20;;
37917;SDS011;23749;51.410;21.130;2022-11-21T10:56:52;54.60;;;32.17;;
37917;SDS011;23749;51.410;21.130;2022-11-21T11:03:20;49.00;;;27.37;;
37917;SDS011;23749;51.410;21.130;2022-11-21T11:06:31;81.13;;;42.30;;
37917;SDS011;23749;51.410;21.130;2022-11-21T11:09:41;55.47;;;30.77;;
37917;SDS011;23749;51.410;21.130;2022-11-21T11:12:55;52.93;;;29.57;;
37917;SDS011;23749;51.410;21.130;2022-11-21T11:16:25;42.57;;;24.60;;
37917;SDS011;23749;51.410;21.130;2022-11-21T11:19:36;47.07;;;26.27;;
37917;SDS011;23749;51.410;21.130;2022-11-21T11:22:46;53.70;;;28.23;;
37917;SDS011;23749;51.410;21.130;2022-11-21T11:25:57;49.47;;;29.33;;
37917;SDS011;23749;51.410;21.130;2022-11-21T11:29:11;45.50;;;26.37;;
37917;SDS011;23749;51.410;21.130;2022-11-21T11:32:23;39.67;;;23.50;;
37917;SDS011;23749;51.410;21.130;2022-11-21T11:35:35;46.37;;;25.30;;
37917;SDS011;23749;51.410;21.130;2022-11-21T11:38:52;45.70;;;25.27;;
37917;SDS011;23749;51.410;21.130;2022-11-21T11:42:13;41.20;;;24.43;;
37917;SDS011;23749;51.410;21.130;2022-11-21T11:52:33;50.47;;;28.87;;
37917;SDS011;23749;51.410;21.130;2022-11-21T11:55:46;55.73;;;30.40;;
37917;SDS011;23749;51.410;21.130;2022-11-21T12:02:34;40.63;;;24.77;;
37917;SDS011;23749;51.410;21.130;2022-11-21T12:05:54;51.23;;;28.13;;
37917;SDS011;23749;51.410;21.130;2022-11-21T12:15:37;51.17;;;28.07;;
37917;SDS011;23749;51.410;21.130;2022-11-21T12:18:59;46.80;;;26.73;;
37917;SDS011;23749;51.410;21.130;2022-11-21T12:22:11;53.50;;;27.70;;
37917;SDS011;23749;51.410;21.130;2022-11-21T12:25:28;63.80;;;33.00;;
37917;SDS011;23749;51.410;21.130;2022-11-21T12:41:51;100.97;;;37.93;;
37917;SDS011;23749;51.410;21.130;2022-11-21T12:45:31;311.37;;;115.07;;
37917;SDS011;23749;51.410;21.130;2022-11-21T12:52:39;41.20;;;23.57;;
37917;SDS011;23749;51.410;21.130;2022-11-21T12:56:12;47.10;;;27.30;;
37917;SDS011;23749;51.410;21.130;2022-11-21T12:59:26;41.07;;;23.97;;
37917;SDS011;23749;51.410;21.130;2022-11-21T13:03:02;33.73;;;21.90;;
37917;SDS011;23749;51.410;21.130;2022-11-21T13:06:59;33.77;;;19.83;;
37917;SDS011;23749;51.410;21.130;2022-11-21T13:09:51;49.47;;;29.23;;
37917;SDS011;23749;51.410;21.130;2022-11-21T13:13:13;41.33;;;23.77;;
37917;SDS011;23749;51.410;21.130;2022-11-21T13:16:26;48.27;;;27.93;;
37917;SDS011;23749;51.410;21.130;2022-11-21T13:22:59;48.80;;;27.50;;
37917;SDS011;23749;51.410;21.130;2022-11-21T13:29:39;45.73;;;23.10;;
37917;SDS011;23749;51.410;21.130;2022-11-21T13:33:45;40.90;;;23.93;;
37917;SDS011;23749;51.410;21.130;2022-11-21T13:36:40;46.53;;;25.00;;
37917;SDS011;23749;51.410;21.130;2022-11-21T13:39:51;44.97;;;25.33;;
37917;SDS011;23749;51.410;21.130;2022-11-21T13:46:55;40.07;;;22.40;;
37917;SDS011;23749;51.410;21.130;2022-11-21T13:53:06;46.23;;;25.40;;
37917;SDS011;23749;51.410;21.130;2022-11-21T13:56:24;47.40;;;26.03;;
37917;SDS011;23749;51.410;21.130;2022-11-21T14:06:39;55.43;;;28.77;;
37917;SDS011;23749;51.410;21.130;2022-11-21T14:09:54;44.20;;;22.73;;
37917;SDS011;23749;51.410;21.130;2022-11-21T14:13:04;59.30;;;29.77;;
37917;SDS011;23749;51.410;21.130;2022-11-21T14:16:30;51.77;;;28.07;;
37917;SDS011;23749;51.410;21.130;2022-11-21T14:19:44;50.00;;;27.07;;
37917;SDS011;23749;51.410;21.130;2022-11-21T14:23:01;50.57;;;27.03;;
37917;SDS011;23749;51.410;21.130;2022-11-21T14:26:15;51.97;;;28.70;;
37917;SDS011;23749;51.410;21.130;2022-11-21T14:29:39;53.20;;;27.70;;
37917;SDS011;23749;51.410;21.130;2022-11-21T14:32:50;52.10;;;27.17;;
37917;SDS011;23749;51.410;21.130;2022-11-21T14:39:13;61.77;;;29.63;;
37917;SDS011;23749;51.410;21.130;2022-11-21T14:42:32;57.07;;;28.43;;
37917;SDS011;23749;51.410;21.130;2022-11-21T14:45:48;46.50;;;24.13;;
37917;SDS011;23749;51.410;21.130;2022-11-21T14:52:25;53.47;;;28.57;;
37917;SDS011;23749;51.410;21.130;2022-11-21T14:55:36;48.73;;;23.63;;
37917;SDS011;23749;51.410;21.130;2022-11-21T14:58:47;58.40;;;29.30;;
37917;SDS011;23749;51.410;21.130;2022-11-21T15:05:30;66.57;;;35.10;;
37917;SDS011;23749;51.410;21.130;2022-11-21T15:08:42;47.70;;;24.70;;
37917;SDS011;23749;51.410;21.130;2022-11-21T15:11:58;56.43;;;27.80;;
37917;SDS011;23749;51.410;21.130;2022-11-21T15:18:32;45.97;;;25.00;;
37917;SDS011;23749;51.410;21.130;2022-11-21T15:21:43;50.30;;;25.03;;
37917;SDS011;23749;51.410;21.130;2022-11-21T15:25:04;63.93;;;31.17;;
37917;SDS011;23749;51.410;21.130;2022-11-21T15:28:15;56.20;;;29.63;;
37917;SDS011;23749;51.410;21.130;2022-11-21T15:31:26;60.83;;;33.93;;
37917;SDS011;23749;51.410;21.130;2022-11-21T15:34:37;63.23;;;36.00;;
37917;SDS011;23749;51.410;21.130;2022-11-21T15:37:47;88.87;;;48.03;;
37917;SDS011;23749;51.410;21.130;2022-11-21T15:47:22;62.87;;;31.63;;
37917;SDS011;23749;51.410;21.130;2022-11-21T15:50:33;68.77;;;36.60;;
37917;SDS011;23749;51.410;21.130;2022-11-21T15:53:45;51.27;;;27.07;;
37917;SDS011;23749;51.410;21.130;2022-11-21T15:56:55;77.70;;;40.13;;
37917;SDS011;23749;51.410;21.130;2022-11-21T16:00:06;53.50;;;31.87;;
37917;SDS011;23749;51.410;21.130;2022-11-21T16:03:17;54.57;;;28.00;;
37917;SDS011;23749;51.410;21.130;2022-11-21T16:06:27;53.97;;;28.97;;
37917;SDS011;23749;51.410;21.130;2022-11-21T16:09:39;57.50;;;30.57;;
37917;SDS011;23749;51.410;21.130;2022-11-21T16:12:51;58.53;;;26.90;;
37917;SDS011;23749;51.410;21.130;2022-11-21T16:16:02;62.73;;;30.03;;
37917;SDS011;23749;51.410;21.130;2022-11-21T16:19:13;55.70;;;28.10;;
37917;SDS011;23749;51.410;21.130;2022-11-21T16:22:23;61.30;;;30.13;;
37917;SDS011;23749;51.410;21.130;2022-11-21T16:25:34;70.10;;;34.10;;
37917;SDS011;23749;51.410;21.130;2022-11-21T16:28:44;100.20;;;43.33;;
37917;SDS011;23749;51.410;21.130;2022-11-21T16:31:54;72.43;;;35.03;;
37917;SDS011;23749;51.410;21.130;2022-11-21T16:35:05;62.67;;;33.07;;
37917;SDS011;23749;51.410;21.130;2022-11-21T16:38:15;66.87;;;32.80;;
37917;SDS011;23749;51.410;21.130;2022-11-21T16:41:27;369.10;;;149.87;;
37917;SDS011;23749;51.410;21.130;2022-11-21T16:44:38;68.63;;;33.47;;
37917;SDS011;23749;51.410;21.130;2022-11-21T16:47:48;166.50;;;82.37;;
37917;SDS011;23749;51.410;21.130;2022-11-21T16:51:17;146.13;;;70.73;;
37917;SDS011;23749;51.410;21.130;2022-11-21T16:54:28;54.70;;;30.67;;
37917;SDS011;23749;51.410;21.130;2022-11-21T16:57:38;48.13;;;26.43;;
37917;SDS011;23749;51.410;21.130;2022-11-21T17:00:48;62.57;;;36.17;;
37917;SDS011;23749;51.410;21.130;2022-11-21T17:03:58;49.07;;;26.83;;
37917;SDS011;23749;51.410;21.130;2022-11-21T17:07:09;76.37;;;38.20;;
37917;SDS011;23749;51.410;21.130;2022-11-21T17:10:19;60.80;;;29.67;;
37917;SDS011;23749;51.410;21.130;2022-11-21T17:13:29;55.67;;;28.27;;
37917;SDS011;23749;51.410;21.130;2022-11-21T17:16:40;44.00;;;23.17;;
37917;SDS011;23749;51.410;21.130;2022-11-21T17:19:50;52.83;;;27.60;;
37917;SDS011;23749;51.410;21.130;2022-11-21T17:23:03;90.47;;;38.00;;
37917;SDS011;23749;51.410;21.130;2022-11-21T17:26:14;63.87;;;34.37;;
37917;SDS011;23749;51.410;21.130;2022-11-21T17:29:28;51.23;;;29.43;;
37917;SDS011;23749;51.410;21.130;2022-11-21T17:32:39;39.70;;;23.90;;
37917;SDS011;23749;51.410;21.130;2022-11-21T17:35:49;45.97;;;26.10;;
37917;SDS011;23749;51.410;21.130;2022-11-21T17:39:00;39.50;;;23.10;;
37917;SDS011;23749;51.410;21.130;2022-11-21T17:42:10;46.97;;;24.47;;
37917;SDS011;23749;51.410;21.130;2022-11-21T17:45:20;52.83;;;28.63;;
37917;SDS011;23749;51.410;21.130;2022-11-21T17:48:31;49.87;;;26.77;;
37917;SDS011;23749;51.410;21.130;2022-11-21T17:51:42;40.80;;;23.67;;
37917;SDS011;23749;51.410;21.130;2022-11-21T17:54:52;50.43;;;27.27;;
37917;SDS011;23749;51.410;21.130;2022-11-21T17:58:02;68.07;;;37.17;;
37917;SDS011;23749;51.410;21.130;2022-11-21T18:01:13;68.23;;;36.90;;
37917;SDS011;23749;51.410;21.130;2022-11-21T18:04:27;44.90;;;23.93;;
37917;SDS011;23749;51.410;21.130;2022-11-21T18:07:38;57.00;;;32.10;;
37917;SDS011;23749;51.410;21.130;2022-11-21T18:10:51;40.80;;;23.53;;
37917;SDS011;23749;51.410;21.130;2022-11-21T18:14:03;45.97;;;25.63;;
37917;SDS011;23749;51.410;21.130;2022-11-21T18:17:13;51.87;;;27.67;;
37917;SDS011;23749;51.410;21.130;2022-11-21T18:20:23;65.27;;;33.70;;
37917;SDS011;23749;51.410;21.130;2022-11-21T18:23:34;55.73;;;26.87;;
37917;SDS011;23749;51.410;21.130;2022-11-21T18:26:44;52.10;;;26.47;;
37917;SDS011;23749;51.410;21.130;2022-11-21T18:29:55;56.93;;;29.53;;
37917;SDS011;23749;51.410;21.130;2022-11-21T18:33:05;50.93;;;27.33;;
37917;SDS011;23749;51.410;21.130;2022-11-21T18:36:16;53.13;;;26.67;;
37917;SDS011;23749;51.410;21.130;2022-11-21T18:39:26;45.67;;;23.13;;
37917;SDS011;23749;51.410;21.130;2022-11-21T18:42:37;51.17;;;28.13;;
37917;SDS011;23749;51.410;21.130;2022-11-21T18:45:47;64.07;;;33.10;;
37917;SDS011;23749;51.410;21.130;2022-11-21T18:48:57;41.63;;;25.30;;
37917;SDS011;23749;51.410;21.130;2022-11-21T18:52:08;63.37;;;34.97;;
37917;SDS011;23749;51.410;21.130;2022-11-21T18:55:18;50.97;;;27.37;;
37917;SDS011;23749;51.410;21.130;2022-11-21T18:58:34;41.27;;;22.37;;
37917;SDS011;23749;51.410;21.130;2022-11-21T19:01:45;47.40;;;24.67;;
37917;SDS011;23749;51.410;21.130;2022-11-21T19:04:56;69.93;;;38.23;;
37917;SDS011;23749;51.410;21.130;2022-11-21T19:08:06;106.20;;;54.10;;
37917;SDS011;23749;51.410;21.130;2022-11-21T19:11:16;66.50;;;33.47;;
37917;SDS011;23749;51.410;21.130;2022-11-21T19:14:28;54.80;;;29.03;;
37917;SDS011;23749;51.410;21.130;2022-11-21T19:17:40;71.67;;;39.23;;
37917;SDS011;23749;51.410;21.130;2022-11-21T19:20:50;51.60;;;27.93;;
37917;SDS011;23749;51.410;21.130;2022-11-21T19:24:00;43.80;;;24.23;;
37917;SDS011;23749;51.410;21.130;2022-11-21T19:27:11;46.17;;;25.00;;
37917;SDS011;23749;51.410;21.130;2022-11-21T19:30:21;48.13;;;26.63;;
37917;SDS011;23749;51.410;21.130;2022-11-21T19:33:31;53.30;;;29.73;;
37917;SDS011;23749;51.410;21.130;2022-11-21T19:36:42;51.50;;;27.07;;
37917;SDS011;23749;51.410;21.130;2022-11-21T19:39:53;59.60;;;33.80;;
37917;SDS011;23749;51.410;21.130;2022-11-21T19:43:03;54.67;;;30.37;;
37917;SDS011;23749;51.410;21.130;2022-11-21T19:46:14;49.87;;;28.50;;
37917;SDS011;23749;51.410;21.130;2022-11-21T19:49:25;48.90;;;27.03;;
37917;SDS011;23749;51.410;21.130;2022-11-21T19:52:35;39.13;;;22.30;;
37917;SDS011;23749;51.410;21.130;2022-11-21T19:55:45;55.03;;;29.30;;
37917;SDS011;23749;51.410;21.130;2022-11-21T19:58:56;42.63;;;24.43;;
37917;SDS011;23749;51.410;21.130;2022-11-21T20:02:09;48.20;;;26.63;;
37917;SDS011;23749;51.410;21.130;2022-11-21T20:05:23;49.30;;;25.50;;
37917;SDS011;23749;51.410;21.130;2022-11-21T20:08:34;50.90;;;26.17;;
37917;SDS011;23749;51.410;21.130;2022-11-21T20:11:45;51.53;;;25.90;;
37917;SDS011;23749;51.410;21.130;2022-11-21T20:14:56;45.37;;;25.17;;